Big River (Missouri), Byrnesville (07018500)

StateMissouriLatestUnknown (171 cfs)
RiverBig RiverRatingObservedEstimated
Updated2022-09-25 7:45 (48 minutes ago)Flood - The river is flooding. Obstacles can be treacherous or deadly. The river should be avoided at this stage for casual trips and definitely for the inexperienced. Trips should be attempted only with protective gear and equipment.Flood(none)(none)
Discharge171 cfs (median: 160 cfs)High - The river is high and potentially dangerous, especially for the young and / or inexperienced. Normal stream obstacles are sometimes difficult to navigate. Extended distances can be attempted, but canoe travel may not be advisable.High(none)(none)
Height2.01 feetGood - Conditions are ideal for a canoe or kayak. Boats typically will drag on fewer than one-quarter of riffles, if at all, and portages are unnecessary or rare. Normal float lengths can be attempted without a problem.Good(none)(none)
TrendFalling (falling over 24 hours)Low - River is low but can still be floated. Some riffles are okay but most come with significant dragging and might need a portage. Float lengths should be reduced to accommodate low flow, dragging, and portages.Low(none)(none)
USGSExternal icon USGS Site (External icon Duck Duck Go Maps)Poor - River is too low to float comfortably. Most or all riffles will drag or must be portaged and some obstacles (such as slick shelf rock) cause undue problems. Avoid the river at this stage for casual paddling trips.Poor(none)(none)

Trending Data

Plot Image

Trips for Big River (Missouri), Byrnesville (07018500)

DateStartEndDistanceConditionDischargeHeightFishingDetails

A total of 0 rows are displayed.

Condition Descriptions

Fishing Conditions

Fish Species

Notes

Classic Trip List

The classic River Trips application is still available for use. It is updated with the new system using a data retrofit. It is no longer maintained. The original River Trips application is no longer updated (as of 1 Dec 2016) but can be checked for errors or for the condition of the data before it was converted to the new system.

Gauge Data Table

ObservationHeightDischargeMaximum
Discharge
Minimum
Discharge
Mean
Discharge
P05P10P20P25P50
(Median)
P75P80P90P95
2022-09-25 07:45 2.01 171 57800 (1993) 49 (1956) 853 69 85 98 109 160 286 338 600 1490
2022-09-25 06:45 2.02 173 57800 (1993) 49 (1956) 853 69 85 98 109 160 286 338 600 1490
2022-09-25 05:45 2.03 174 57800 (1993) 49 (1956) 853 69 85 98 109 160 286 338 600 1490
2022-09-25 04:45 2.03 174 57800 (1993) 49 (1956) 853 69 85 98 109 160 286 338 600 1490
2022-09-25 03:45 2.04 176 57800 (1993) 49 (1956) 853 69 85 98 109 160 286 338 600 1490
2022-09-25 02:45 2.05 178 57800 (1993) 49 (1956) 853 69 85 98 109 160 286 338 600 1490
2022-09-25 01:45 2.06 179 57800 (1993) 49 (1956) 853 69 85 98 109 160 286 338 600 1490
2022-09-25 00:45 2.07 181 57800 (1993) 49 (1956) 853 69 85 98 109 160 286 338 600 1490
2022-09-24 23:45 2.07 181 43100 (1993) 48 (1956) 745 67 81 100 108 150 250 315 596 1160
2022-09-24 22:45 2.08 183 43100 (1993) 48 (1956) 745 67 81 100 108 150 250 315 596 1160
2022-09-24 21:45 2.08 183 43100 (1993) 48 (1956) 745 67 81 100 108 150 250 315 596 1160
2022-09-24 20:45 2.09 184 43100 (1993) 48 (1956) 745 67 81 100 108 150 250 315 596 1160
2022-09-24 19:45 2.09 184 43100 (1993) 48 (1956) 745 67 81 100 108 150 250 315 596 1160
2022-09-24 18:45 2.10 186 43100 (1993) 48 (1956) 745 67 81 100 108 150 250 315 596 1160
2022-09-24 17:45 2.10 186 43100 (1993) 48 (1956) 745 67 81 100 108 150 250 315 596 1160
2022-09-24 16:45 2.10 186 43100 (1993) 48 (1956) 745 67 81 100 108 150 250 315 596 1160
2022-09-24 15:45 2.10 186 43100 (1993) 48 (1956) 745 67 81 100 108 150 250 315 596 1160
2022-09-24 14:45 2.09 184 43100 (1993) 48 (1956) 745 67 81 100 108 150 250 315 596 1160
2022-09-24 13:45 2.10 186 43100 (1993) 48 (1956) 745 67 81 100 108 150 250 315 596 1160
2022-09-24 12:45 2.09 184 43100 (1993) 48 (1956) 745 67 81 100 108 150 250 315 596 1160
2022-09-24 11:45 2.09 184 43100 (1993) 48 (1956) 745 67 81 100 108 150 250 315 596 1160
2022-09-24 10:45 2.08 183 43100 (1993) 48 (1956) 745 67 81 100 108 150 250 315 596 1160
2022-09-24 09:45 2.07 181 43100 (1993) 48 (1956) 745 67 81 100 108 150 250 315 596 1160
2022-09-24 08:45 2.06 179 43100 (1993) 48 (1956) 745 67 81 100 108 150 250 315 596 1160
2022-09-24 07:45 2.05 178 43100 (1993) 48 (1956) 745 67 81 100 108 150 250 315 596 1160
2022-09-24 06:45 2.04 176 43100 (1993) 48 (1956) 745 67 81 100 108 150 250 315 596 1160
2022-09-24 05:45 2.03 174 43100 (1993) 48 (1956) 745 67 81 100 108 150 250 315 596 1160
2022-09-24 04:45 2.02 173 43100 (1993) 48 (1956) 745 67 81 100 108 150 250 315 596 1160
2022-09-24 03:45 2.00 169 43100 (1993) 48 (1956) 745 67 81 100 108 150 250 315 596 1160
2022-09-24 02:45 1.98 166 43100 (1993) 48 (1956) 745 67 81 100 108 150 250 315 596 1160
2022-09-24 01:45 1.96 163 43100 (1993) 48 (1956) 745 67 81 100 108 150 250 315 596 1160
2022-09-24 00:45 1.94 160 43100 (1993) 48 (1956) 745 67 81 100 108 150 250 315 596 1160
2022-09-23 23:45 1.92 156 14600 (1993) 46 (1956) 485 66 82 102 109 149 297 364 720 1690
2022-09-23 22:45 1.90 153 14600 (1993) 46 (1956) 485 66 82 102 109 149 297 364 720 1690
2022-09-23 21:45 1.88 150 14600 (1993) 46 (1956) 485 66 82 102 109 149 297 364 720 1690
2022-09-23 20:45 1.86 147 14600 (1993) 46 (1956) 485 66 82 102 109 149 297 364 720 1690
2022-09-23 19:45 1.83 142 14600 (1993) 46 (1956) 485 66 82 102 109 149 297 364 720 1690
2022-09-23 18:45 1.81 139 14600 (1993) 46 (1956) 485 66 82 102 109 149 297 364 720 1690
2022-09-23 17:45 1.80 138 14600 (1993) 46 (1956) 485 66 82 102 109 149 297 364 720 1690
2022-09-23 16:45 1.79 136 14600 (1993) 46 (1956) 485 66 82 102 109 149 297 364 720 1690
2022-09-23 15:45 1.77 133 14600 (1993) 46 (1956) 485 66 82 102 109 149 297 364 720 1690
2022-09-23 14:45 1.77 133 14600 (1993) 46 (1956) 485 66 82 102 109 149 297 364 720 1690
2022-09-23 13:45 1.76 132 14600 (1993) 46 (1956) 485 66 82 102 109 149 297 364 720 1690
2022-09-23 12:45 1.76 132 14600 (1993) 46 (1956) 485 66 82 102 109 149 297 364 720 1690
2022-09-23 11:45 1.75 130 14600 (1993) 46 (1956) 485 66 82 102 109 149 297 364 720 1690
2022-09-23 10:45 1.75 130 14600 (1993) 46 (1956) 485 66 82 102 109 149 297 364 720 1690
2022-09-23 09:45 1.75 130 14600 (1993) 46 (1956) 485 66 82 102 109 149 297 364 720 1690
2022-09-23 08:45 1.75 130 14600 (1993) 46 (1956) 485 66 82 102 109 149 297 364 720 1690
2022-09-23 07:45 1.76 132 14600 (1993) 46 (1956) 485 66 82 102 109 149 297 364 720 1690
2022-09-23 06:45 1.76 132 14600 (1993) 46 (1956) 485 66 82 102 109 149 297 364 720 1690
2022-09-23 05:45 1.76 132 14600 (1993) 46 (1956) 485 66 82 102 109 149 297 364 720 1690
2022-09-23 04:45 1.76 132 14600 (1993) 46 (1956) 485 66 82 102 109 149 297 364 720 1690
2022-09-23 03:45 1.76 132 14600 (1993) 46 (1956) 485 66 82 102 109 149 297 364 720 1690
2022-09-23 02:45 1.76 132 14600 (1993) 46 (1956) 485 66 82 102 109 149 297 364 720 1690
2022-09-23 01:45 1.76 132 14600 (1993) 46 (1956) 485 66 82 102 109 149 297 364 720 1690
2022-09-23 00:45 1.76 132 14600 (1993) 46 (1956) 485 66 82 102 109 149 297 364 720 1690
2022-09-22 23:45 1.76 132 6700 (1950) 46 (1956) 337 55 80 104 107 148 262 393 693 1260
2022-09-22 22:45 1.77 133 6700 (1950) 46 (1956) 337 55 80 104 107 148 262 393 693 1260
2022-09-22 21:45 1.77 133 6700 (1950) 46 (1956) 337 55 80 104 107 148 262 393 693 1260
2022-09-22 20:45 1.77 133 6700 (1950) 46 (1956) 337 55 80 104 107 148 262 393 693 1260
2022-09-22 19:45 1.77 133 6700 (1950) 46 (1956) 337 55 80 104 107 148 262 393 693 1260
2022-09-22 18:45 1.77 133 6700 (1950) 46 (1956) 337 55 80 104 107 148 262 393 693 1260
2022-09-22 17:45 1.77 133 6700 (1950) 46 (1956) 337 55 80 104 107 148 262 393 693 1260
2022-09-22 16:45 1.78 135 6700 (1950) 46 (1956) 337 55 80 104 107 148 262 393 693 1260
2022-09-22 15:45 1.78 135 6700 (1950) 46 (1956) 337 55 80 104 107 148 262 393 693 1260
2022-09-22 14:45 1.78 135 6700 (1950) 46 (1956) 337 55 80 104 107 148 262 393 693 1260
2022-09-22 13:45 1.78 135 6700 (1950) 46 (1956) 337 55 80 104 107 148 262 393 693 1260
2022-09-22 12:45 1.78 135 6700 (1950) 46 (1956) 337 55 80 104 107 148 262 393 693 1260
2022-09-22 11:45 1.78 135 6700 (1950) 46 (1956) 337 55 80 104 107 148 262 393 693 1260
2022-09-22 10:45 1.78 135 6700 (1950) 46 (1956) 337 55 80 104 107 148 262 393 693 1260
2022-09-22 09:45 1.78 135 6700 (1950) 46 (1956) 337 55 80 104 107 148 262 393 693 1260
2022-09-22 08:45 1.79 136 6700 (1950) 46 (1956) 337 55 80 104 107 148 262 393 693 1260
2022-09-22 07:45 1.79 136 6700 (1950) 46 (1956) 337 55 80 104 107 148 262 393 693 1260
2022-09-22 06:45 1.79 136 6700 (1950) 46 (1956) 337 55 80 104 107 148 262 393 693 1260
2022-09-22 05:45 1.80 138 6700 (1950) 46 (1956) 337 55 80 104 107 148 262 393 693 1260
2022-09-22 04:45 1.80 138 6700 (1950) 46 (1956) 337 55 80 104 107 148 262 393 693 1260
2022-09-22 03:45 1.80 138 6700 (1950) 46 (1956) 337 55 80 104 107 148 262 393 693 1260
2022-09-22 02:45 1.81 139 6700 (1950) 46 (1956) 337 55 80 104 107 148 262 393 693 1260
2022-09-22 01:45 1.81 139 6700 (1950) 46 (1956) 337 55 80 104 107 148 262 393 693 1260
2022-09-22 00:45 1.81 139 6700 (1950) 46 (1956) 337 55 80 104 107 148 262 393 693 1260
2022-09-21 23:45 1.81 139 3860 (1924) 45 (1956) 267 61 78 102 106 150 260 301 609 848
2022-09-21 22:45 1.81 139 3860 (1924) 45 (1956) 267 61 78 102 106 150 260 301 609 848
2022-09-21 21:45 1.81 139 3860 (1924) 45 (1956) 267 61 78 102 106 150 260 301 609 848
2022-09-21 20:45 1.82 141 3860 (1924) 45 (1956) 267 61 78 102 106 150 260 301 609 848
2022-09-21 19:45 1.81 139 3860 (1924) 45 (1956) 267 61 78 102 106 150 260 301 609 848
2022-09-21 18:45 1.80 138 3860 (1924) 45 (1956) 267 61 78 102 106 150 260 301 609 848
2022-09-21 17:45 1.81 139 3860 (1924) 45 (1956) 267 61 78 102 106 150 260 301 609 848
2022-09-21 16:45 1.81 139 3860 (1924) 45 (1956) 267 61 78 102 106 150 260 301 609 848
2022-09-21 15:45 1.81 139 3860 (1924) 45 (1956) 267 61 78 102 106 150 260 301 609 848
2022-09-21 14:45 1.81 139 3860 (1924) 45 (1956) 267 61 78 102 106 150 260 301 609 848
2022-09-21 13:45 1.81 139 3860 (1924) 45 (1956) 267 61 78 102 106 150 260 301 609 848
2022-09-21 12:45 1.82 141 3860 (1924) 45 (1956) 267 61 78 102 106 150 260 301 609 848
2022-09-21 11:45 1.82 141 3860 (1924) 45 (1956) 267 61 78 102 106 150 260 301 609 848
2022-09-21 10:45 1.82 141 3860 (1924) 45 (1956) 267 61 78 102 106 150 260 301 609 848
2022-09-21 09:45 1.83 142 3860 (1924) 45 (1956) 267 61 78 102 106 150 260 301 609 848
2022-09-21 08:45 1.83 142 3860 (1924) 45 (1956) 267 61 78 102 106 150 260 301 609 848
2022-09-21 07:45 1.83 142 3860 (1924) 45 (1956) 267 61 78 102 106 150 260 301 609 848
2022-09-21 06:45 1.83 142 3860 (1924) 45 (1956) 267 61 78 102 106 150 260 301 609 848
2022-09-21 05:45 1.84 144 3860 (1924) 45 (1956) 267 61 78 102 106 150 260 301 609 848
2022-09-21 04:45 1.83 142 3860 (1924) 45 (1956) 267 61 78 102 106 150 260 301 609 848
2022-09-21 03:45 1.84 144 3860 (1924) 45 (1956) 267 61 78 102 106 150 260 301 609 848
2022-09-21 02:45 1.84 144 3860 (1924) 45 (1956) 267 61 78 102 106 150 260 301 609 848
2022-09-21 01:45 1.84 144 3860 (1924) 45 (1956) 267 61 78 102 106 150 260 301 609 848
2022-09-21 00:45 1.84 144 3860 (1924) 45 (1956) 267 61 78 102 106 150 260 301 609 848
2022-09-20 23:45 1.84 144 1640 (1970) 44 (1956) 260 61 79 100 108 145 281 330 594 1050
2022-09-20 22:45 1.84 144 1640 (1970) 44 (1956) 260 61 79 100 108 145 281 330 594 1050
2022-09-20 21:45 1.84 144 1640 (1970) 44 (1956) 260 61 79 100 108 145 281 330 594 1050
2022-09-20 20:45 1.84 144 1640 (1970) 44 (1956) 260 61 79 100 108 145 281 330 594 1050
2022-09-20 19:45 1.84 144 1640 (1970) 44 (1956) 260 61 79 100 108 145 281 330 594 1050
2022-09-20 18:45 1.84 144 1640 (1970) 44 (1956) 260 61 79 100 108 145 281 330 594 1050
2022-09-20 17:45 1.85 145 1640 (1970) 44 (1956) 260 61 79 100 108 145 281 330 594 1050
2022-09-20 16:45 1.85 145 1640 (1970) 44 (1956) 260 61 79 100 108 145 281 330 594 1050
2022-09-20 15:45 1.85 145 1640 (1970) 44 (1956) 260 61 79 100 108 145 281 330 594 1050
2022-09-20 14:45 1.85 145 1640 (1970) 44 (1956) 260 61 79 100 108 145 281 330 594 1050
2022-09-20 13:45 1.85 145 1640 (1970) 44 (1956) 260 61 79 100 108 145 281 330 594 1050
2022-09-20 12:45 1.85 145 1640 (1970) 44 (1956) 260 61 79 100 108 145 281 330 594 1050
2022-09-20 11:45 1.85 145 1640 (1970) 44 (1956) 260 61 79 100 108 145 281 330 594 1050
2022-09-20 10:45 1.85 145 1640 (1970) 44 (1956) 260 61 79 100 108 145 281 330 594 1050
2022-09-20 09:45 1.86 147 1640 (1970) 44 (1956) 260 61 79 100 108 145 281 330 594 1050
2022-09-20 08:45 1.85 145 1640 (1970) 44 (1956) 260 61 79 100 108 145 281 330 594 1050
2022-09-20 07:45 1.85 145 1640 (1970) 44 (1956) 260 61 79 100 108 145 281 330 594 1050
2022-09-20 06:45 1.85 145 1640 (1970) 44 (1956) 260 61 79 100 108 145 281 330 594 1050
2022-09-20 05:45 1.86 147 1640 (1970) 44 (1956) 260 61 79 100 108 145 281 330 594 1050
2022-09-20 04:45 1.86 147 1640 (1970) 44 (1956) 260 61 79 100 108 145 281 330 594 1050
2022-09-20 03:45 1.86 147 1640 (1970) 44 (1956) 260 61 79 100 108 145 281 330 594 1050
2022-09-20 02:45 1.85 145 1640 (1970) 44 (1956) 260 61 79 100 108 145 281 330 594 1050
2022-09-20 01:45 1.86 147 1640 (1970) 44 (1956) 260 61 79 100 108 145 281 330 594 1050
2022-09-20 00:45 1.85 145 1640 (1970) 44 (1956) 260 61 79 100 108 145 281 330 594 1050
2022-09-19 23:45 1.85 145 2670 (1986) 42 (1956) 280 61 78 96 103 151 295 341 522 815
2022-09-19 22:45 1.85 145 2670 (1986) 42 (1956) 280 61 78 96 103 151 295 341 522 815
2022-09-19 21:45 1.85 145 2670 (1986) 42 (1956) 280 61 78 96 103 151 295 341 522 815
2022-09-19 20:45 1.85 145 2670 (1986) 42 (1956) 280 61 78 96 103 151 295 341 522 815
2022-09-19 19:45 1.86 147 2670 (1986) 42 (1956) 280 61 78 96 103 151 295 341 522 815
2022-09-19 18:45 1.86 147 2670 (1986) 42 (1956) 280 61 78 96 103 151 295 341 522 815
2022-09-19 17:45 1.86 147 2670 (1986) 42 (1956) 280 61 78 96 103 151 295 341 522 815
2022-09-19 16:45 1.86 147 2670 (1986) 42 (1956) 280 61 78 96 103 151 295 341 522 815
2022-09-19 15:45 1.86 147 2670 (1986) 42 (1956) 280 61 78 96 103 151 295 341 522 815
2022-09-19 14:45 1.86 147 2670 (1986) 42 (1956) 280 61 78 96 103 151 295 341 522 815
2022-09-19 13:45 1.86 147 2670 (1986) 42 (1956) 280 61 78 96 103 151 295 341 522 815
2022-09-19 12:45 1.86 147 2670 (1986) 42 (1956) 280 61 78 96 103 151 295 341 522 815
2022-09-19 11:45 1.87 149 2670 (1986) 42 (1956) 280 61 78 96 103 151 295 341 522 815
2022-09-19 10:45 1.87 149 2670 (1986) 42 (1956) 280 61 78 96 103 151 295 341 522 815
2022-09-19 09:45 1.87 149 2670 (1986) 42 (1956) 280 61 78 96 103 151 295 341 522 815
2022-09-19 08:45 1.87 149 2670 (1986) 42 (1956) 280 61 78 96 103 151 295 341 522 815
2022-09-19 07:45 1.87 149 2670 (1986) 42 (1956) 280 61 78 96 103 151 295 341 522 815
2022-09-19 06:45 1.88 150 2670 (1986) 42 (1956) 280 61 78 96 103 151 295 341 522 815
2022-09-19 05:45 1.88 150 2670 (1986) 42 (1956) 280 61 78 96 103 151 295 341 522 815
2022-09-19 04:45 1.88 150 2670 (1986) 42 (1956) 280 61 78 96 103 151 295 341 522 815
2022-09-19 03:45 1.88 150 2670 (1986) 42 (1956) 280 61 78 96 103 151 295 341 522 815
2022-09-19 02:45 1.88 150 2670 (1986) 42 (1956) 280 61 78 96 103 151 295 341 522 815
2022-09-19 01:45 1.89 152 2670 (1986) 42 (1956) 280 61 78 96 103 151 295 341 522 815
2022-09-19 00:45 1.89 152 2670 (1986) 42 (1956) 280 61 78 96 103 151 295 341 522 815
2022-09-18 23:45 1.89 152 5850 (2016) 40 (1956) 321 62 78 96 106 151 232 333 706 868
2022-09-18 22:45 1.89 152 5850 (2016) 40 (1956) 321 62 78 96 106 151 232 333 706 868
2022-09-18 21:45 1.89 152 5850 (2016) 40 (1956) 321 62 78 96 106 151 232 333 706 868
2022-09-18 20:45 1.89 152 5850 (2016) 40 (1956) 321 62 78 96 106 151 232 333 706 868
2022-09-18 19:45 1.90 153 5850 (2016) 40 (1956) 321 62 78 96 106 151 232 333 706 868
2022-09-18 18:45 1.89 152 5850 (2016) 40 (1956) 321 62 78 96 106 151 232 333 706 868
2022-09-18 17:45 1.90 153 5850 (2016) 40 (1956) 321 62 78 96 106 151 232 333 706 868
2022-09-18 16:45 1.90 153 5850 (2016) 40 (1956) 321 62 78 96 106 151 232 333 706 868
2022-09-18 15:45 1.90 153 5850 (2016) 40 (1956) 321 62 78 96 106 151 232 333 706 868
2022-09-18 14:45 1.89 152 5850 (2016) 40 (1956) 321 62 78 96 106 151 232 333 706 868
2022-09-18 13:45 1.89 152 5850 (2016) 40 (1956) 321 62 78 96 106 151 232 333 706 868
2022-09-18 12:45 1.90 153 5850 (2016) 40 (1956) 321 62 78 96 106 151 232 333 706 868
2022-09-18 11:45 1.90 153 5850 (2016) 40 (1956) 321 62 78 96 106 151 232 333 706 868
2022-09-18 10:45 1.90 153 5850 (2016) 40 (1956) 321 62 78 96 106 151 232 333 706 868
2022-09-18 09:45 1.89 152 5850 (2016) 40 (1956) 321 62 78 96 106 151 232 333 706 868
2022-09-18 08:45 1.88 150 5850 (2016) 40 (1956) 321 62 78 96 106 151 232 333 706 868
2022-09-18 07:45 1.87 149 5850 (2016) 40 (1956) 321 62 78 96 106 151 232 333 706 868
2022-09-18 06:45 1.88 150 5850 (2016) 40 (1956) 321 62 78 96 106 151 232 333 706 868
2022-09-18 05:45 1.88 150 5850 (2016) 40 (1956) 321 62 78 96 106 151 232 333 706 868
2022-09-18 04:45 1.88 150 5850 (2016) 40 (1956) 321 62 78 96 106 151 232 333 706 868
2022-09-18 03:45 1.88 150 5850 (2016) 40 (1956) 321 62 78 96 106 151 232 333 706 868
2022-09-18 02:45 1.89 152 5850 (2016) 40 (1956) 321 62 78 96 106 151 232 333 706 868
2022-09-18 01:45 1.89 152 5850 (2016) 40 (1956) 321 62 78 96 106 151 232 333 706 868
2022-09-18 00:45 1.88 150 5850 (2016) 40 (1956) 321 62 78 96 106 151 232 333 706 868

A total of 176 rows are displayed for years 1922 through 2020.